<?xml version="1.0" encoding="UTF-8" standalone="no" ?>
<gpx xmlns="http://www.topografix.com/GPX/1/1" creator="MapSource 6.11.6" version="1.1" xmlns:xsi="http://www.w3.org/2001/XMLSchema-instance" xsi:schemaLocation="http://www.topografix.com/GPX/1/1 http://www.topografix.com/GPX/1/1/gpx.xsd">

  <metadata>
    <link href="http://www.garmin.com">
      <text>Garmin International</text>
    </link>
    <time>2008-10-11T17:54:50Z</time>
    <bounds maxlat="50.709255" maxlon="6.444537" minlat="50.604480" minlon="6.287774"/>
  </metadata>

  <trk>
    <name>Bachtaeler-Hoehenroute</name>
    <extensions>
      <gpxx:TrackExtension xmlns:gpxx="http://www.garmin.com/xmlschemas/GpxExtensions/v3" xmlns:xsi="http://www.w3.org/2001/XMLSchema-instance" xsi:schemaLocation="http://www.garmin.com/xmlschemas/GpxExtensions/v3 http://www.garmin.com/xmlschemas/GpxExtensions/v3/GpxExtensionsv3.xsd">
        <gpxx:DisplayColor>White</gpxx:DisplayColor>
      </gpxx:TrackExtension>
    </extensions>
    <trkseg>
      <trkpt lat="50.708262" lon="6.287774">
        <ele>317.000000</ele>
        <time>2008-05-07T22:43:51Z</time>
      </trkpt>
      <trkpt lat="50.708356" lon="6.287866">
        <ele>317.000000</ele>
        <time>2008-05-07T22:43:55Z</time>
      </trkpt>
      <trkpt lat="50.708807" lon="6.287852">
        <ele>310.000000</ele>
        <time>2008-05-07T22:44:13Z</time>
      </trkpt>
      <trkpt lat="50.708912" lon="6.287907">
        <ele>310.000000</ele>
        <time>2008-05-07T22:44:17Z</time>
      </trkpt>
      <trkpt lat="50.709029" lon="6.288124">
        <ele>315.000000</ele>
        <time>2008-05-07T22:44:25Z</time>
      </trkpt>
      <trkpt lat="50.709064" lon="6.288444">
        <ele>315.000000</ele>
        <time>2008-05-07T22:44:33Z</time>
      </trkpt>
      <trkpt lat="50.708396" lon="6.290412">
        <ele>337.000000</ele>
        <time>2008-05-07T22:45:30Z</time>
      </trkpt>
      <trkpt lat="50.707294" lon="6.291076">
        <ele>342.000000</ele>
        <time>2008-05-07T22:46:17Z</time>
      </trkpt>
      <trkpt lat="50.707095" lon="6.291288">
        <ele>348.000000</ele>
        <time>2008-05-07T22:46:26Z</time>
      </trkpt>
      <trkpt lat="50.706546" lon="6.292212">
        <ele>357.000000</ele>
        <time>2008-05-07T22:46:58Z</time>
      </trkpt>
      <trkpt lat="50.706460" lon="6.292466">
        <ele>357.000000</ele>
        <time>2008-05-07T22:47:06Z</time>
      </trkpt>
      <trkpt lat="50.706460" lon="6.292824">
        <ele>357.000000</ele>
        <time>2008-05-07T22:47:15Z</time>
      </trkpt>
      <trkpt lat="50.706522" lon="6.293008">
        <ele>362.000000</ele>
        <time>2008-05-07T22:47:20Z</time>
      </trkpt>
      <trkpt lat="50.707085" lon="6.293662">
        <ele>360.000000</ele>
        <time>2008-05-07T22:47:48Z</time>
      </trkpt>
      <trkpt lat="50.707434" lon="6.294266">
        <ele>368.000000</ele>
        <time>2008-05-07T22:48:09Z</time>
      </trkpt>
      <trkpt lat="50.707854" lon="6.295407">
        <ele>377.000000</ele>
        <time>2008-05-07T22:48:42Z</time>
      </trkpt>
      <trkpt lat="50.709012" lon="6.297198">
        <ele>385.000000</ele>
        <time>2008-05-07T22:49:47Z</time>
      </trkpt>
      <trkpt lat="50.709163" lon="6.297517">
        <ele>385.000000</ele>
        <time>2008-05-07T22:49:57Z</time>
      </trkpt>
      <trkpt lat="50.709255" lon="6.298349">
        <ele>391.000000</ele>
        <time>2008-05-07T22:50:19Z</time>
      </trkpt>
      <trkpt lat="50.708989" lon="6.300852">
        <ele>399.000000</ele>
        <time>2008-05-07T22:51:23Z</time>
      </trkpt>
      <trkpt lat="50.708884" lon="6.302643">
        <ele>402.000000</ele>
        <time>2008-05-07T22:52:09Z</time>
      </trkpt>
      <trkpt lat="50.708811" lon="6.302799">
        <ele>402.000000</ele>
        <time>2008-05-07T22:52:14Z</time>
      </trkpt>
      <trkpt lat="50.706621" lon="6.304089">
        <ele>412.000000</ele>
        <time>2008-05-07T22:53:47Z</time>
      </trkpt>
      <trkpt lat="50.706304" lon="6.304350">
        <ele>412.000000</ele>
        <time>2008-05-07T22:54:01Z</time>
      </trkpt>
      <trkpt lat="50.706130" lon="6.305173">
        <ele>417.000000</ele>
        <time>2008-05-07T22:54:23Z</time>
      </trkpt>
      <trkpt lat="50.705687" lon="6.306698">
        <ele>420.000000</ele>
        <time>2008-05-07T22:55:06Z</time>
      </trkpt>
      <trkpt lat="50.705032" lon="6.308701">
        <ele>420.000000</ele>
        <time>2008-05-07T22:56:03Z</time>
      </trkpt>
      <trkpt lat="50.704760" lon="6.309263">
        <ele>422.000000</ele>
        <time>2008-05-07T22:56:21Z</time>
      </trkpt>
      <trkpt lat="50.704640" lon="6.309409">
        <ele>422.000000</ele>
        <time>2008-05-07T22:56:27Z</time>
      </trkpt>
      <trkpt lat="50.704316" lon="6.309531">
        <ele>425.000000</ele>
        <time>2008-05-07T22:56:40Z</time>
      </trkpt>
      <trkpt lat="50.704137" lon="6.309475">
        <ele>425.000000</ele>
        <time>2008-05-07T22:56:48Z</time>
      </trkpt>
      <trkpt lat="50.703871" lon="6.309156">
        <ele>425.000000</ele>
        <time>2008-05-07T22:57:01Z</time>
      </trkpt>
      <trkpt lat="50.703733" lon="6.309152">
        <ele>435.000000</ele>
        <time>2008-05-07T22:57:07Z</time>
      </trkpt>
      <trkpt lat="50.703770" lon="6.309435">
        <ele>425.000000</ele>
        <time>2008-05-07T22:57:14Z</time>
      </trkpt>
      <trkpt lat="50.703944" lon="6.309613">
        <ele>428.000000</ele>
        <time>2008-05-07T22:57:22Z</time>
      </trkpt>
      <trkpt lat="50.704141" lon="6.310148">
        <ele>428.000000</ele>
        <time>2008-05-07T22:57:38Z</time>
      </trkpt>
      <trkpt lat="50.704393" lon="6.311068">
        <ele>432.000000</ele>
        <time>2008-05-07T22:58:03Z</time>
      </trkpt>
      <trkpt lat="50.704386" lon="6.311426">
        <ele>437.000000</ele>
        <time>2008-05-07T22:58:12Z</time>
      </trkpt>
      <trkpt lat="50.703228" lon="6.316195">
        <ele>452.000000</ele>
        <time>2008-05-07T23:00:22Z</time>
      </trkpt>
      <trkpt lat="50.700357" lon="6.314515">
        <ele>475.000000</ele>
        <time>2008-05-07T23:02:25Z</time>
      </trkpt>
      <trkpt lat="50.690558" lon="6.312666">
        <ele>483.000000</ele>
        <time>2008-05-07T23:09:00Z</time>
      </trkpt>
      <trkpt lat="50.689761" lon="6.314180">
        <ele>483.000000</ele>
        <time>2008-05-07T23:09:50Z</time>
      </trkpt>
      <trkpt lat="50.688973" lon="6.313109">
        <ele>482.000000</ele>
        <time>2008-05-07T23:10:31Z</time>
      </trkpt>
      <trkpt lat="50.683536" lon="6.308094">
        <ele>489.000000</ele>
        <time>2008-05-07T23:14:43Z</time>
      </trkpt>
      <trkpt lat="50.683390" lon="6.308120">
        <ele>489.000000</ele>
        <time>2008-05-07T23:14:49Z</time>
      </trkpt>
      <trkpt lat="50.682651" lon="6.311195">
        <ele>495.000000</ele>
        <time>2008-05-07T23:16:13Z</time>
      </trkpt>
      <trkpt lat="50.676291" lon="6.308575">
        <ele>512.000000</ele>
        <time>2008-05-07T23:20:36Z</time>
      </trkpt>
      <trkpt lat="50.674862" lon="6.316783">
        <ele>482.000000</ele>
        <time>2008-05-07T23:24:12Z</time>
      </trkpt>
      <trkpt lat="50.671625" lon="6.315797">
        <ele>492.000000</ele>
        <time>2008-05-07T23:26:24Z</time>
      </trkpt>
      <trkpt lat="50.670404" lon="6.314654">
        <ele>503.000000</ele>
        <time>2008-05-07T23:27:20Z</time>
      </trkpt>
      <trkpt lat="50.669613" lon="6.315591">
        <ele>500.000000</ele>
        <time>2008-05-07T23:28:00Z</time>
      </trkpt>
      <trkpt lat="50.669438" lon="6.316043">
        <ele>495.000000</ele>
        <time>2008-05-07T23:28:13Z</time>
      </trkpt>
      <trkpt lat="50.669179" lon="6.317344">
        <ele>494.000000</ele>
        <time>2008-05-07T23:28:48Z</time>
      </trkpt>
      <trkpt lat="50.668675" lon="6.318567">
        <ele>485.000000</ele>
        <time>2008-05-07T23:29:25Z</time>
      </trkpt>
      <trkpt lat="50.668408" lon="6.319019">
        <ele>489.000000</ele>
        <time>2008-05-07T23:29:41Z</time>
      </trkpt>
      <trkpt lat="50.667589" lon="6.320084">
        <ele>485.000000</ele>
        <time>2008-05-07T23:30:23Z</time>
      </trkpt>
      <trkpt lat="50.667037" lon="6.321025">
        <ele>476.000000</ele>
        <time>2008-05-07T23:30:56Z</time>
      </trkpt>
      <trkpt lat="50.666737" lon="6.321751">
        <ele>480.000000</ele>
        <time>2008-05-07T23:31:18Z</time>
      </trkpt>
      <trkpt lat="50.666703" lon="6.322287">
        <ele>481.000000</ele>
        <time>2008-05-07T23:31:31Z</time>
      </trkpt>
      <trkpt lat="50.666974" lon="6.323502">
        <ele>482.000000</ele>
        <time>2008-05-07T23:32:04Z</time>
      </trkpt>
      <trkpt lat="50.667016" lon="6.323803">
        <ele>480.000000</ele>
        <time>2008-05-07T23:32:12Z</time>
      </trkpt>
      <trkpt lat="50.666503" lon="6.325500">
        <ele>477.000000</ele>
        <time>2008-05-07T23:33:00Z</time>
      </trkpt>
      <trkpt lat="50.666484" lon="6.325834">
        <ele>477.000000</ele>
        <time>2008-05-07T23:33:08Z</time>
      </trkpt>
      <trkpt lat="50.666641" lon="6.326274">
        <ele>475.000000</ele>
        <time>2008-05-07T23:33:21Z</time>
      </trkpt>
      <trkpt lat="50.666656" lon="6.326594">
        <ele>475.000000</ele>
        <time>2008-05-07T23:33:29Z</time>
      </trkpt>
      <trkpt lat="50.666587" lon="6.326944">
        <ele>475.000000</ele>
        <time>2008-05-07T23:33:38Z</time>
      </trkpt>
      <trkpt lat="50.666205" lon="6.327620">
        <ele>483.000000</ele>
        <time>2008-05-07T23:34:01Z</time>
      </trkpt>
      <trkpt lat="50.666003" lon="6.327704">
        <ele>483.000000</ele>
        <time>2008-05-07T23:34:10Z</time>
      </trkpt>
      <trkpt lat="50.665207" lon="6.327271">
        <ele>489.000000</ele>
        <time>2008-05-07T23:34:43Z</time>
      </trkpt>
      <trkpt lat="50.664811" lon="6.327148">
        <ele>489.000000</ele>
        <time>2008-05-07T23:35:00Z</time>
      </trkpt>
      <trkpt lat="50.664497" lon="6.327238">
        <ele>485.000000</ele>
        <time>2008-05-07T23:35:12Z</time>
      </trkpt>
      <trkpt lat="50.664055" lon="6.327633">
        <ele>485.000000</ele>
        <time>2008-05-07T23:35:33Z</time>
      </trkpt>
      <trkpt lat="50.663254" lon="6.327952">
        <ele>486.000000</ele>
        <time>2008-05-07T23:36:06Z</time>
      </trkpt>
      <trkpt lat="50.662258" lon="6.327899">
        <ele>475.000000</ele>
        <time>2008-05-07T23:36:46Z</time>
      </trkpt>
      <trkpt lat="50.661433" lon="6.327552">
        <ele>476.000000</ele>
        <time>2008-05-07T23:37:20Z</time>
      </trkpt>
      <trkpt lat="50.661176" lon="6.327578">
        <ele>470.000000</ele>
        <time>2008-05-07T23:37:30Z</time>
      </trkpt>
      <trkpt lat="50.660982" lon="6.327711">
        <ele>470.000000</ele>
        <time>2008-05-07T23:37:39Z</time>
      </trkpt>
      <trkpt lat="50.660848" lon="6.327925">
        <ele>476.000000</ele>
        <time>2008-05-07T23:37:46Z</time>
      </trkpt>
      <trkpt lat="50.660755" lon="6.328196">
        <ele>476.000000</ele>
        <time>2008-05-07T23:37:54Z</time>
      </trkpt>
      <trkpt lat="50.660820" lon="6.329199">
        <ele>472.000000</ele>
        <time>2008-05-07T23:38:20Z</time>
      </trkpt>
      <trkpt lat="50.660914" lon="6.329588">
        <ele>468.000000</ele>
        <time>2008-05-07T23:38:30Z</time>
      </trkpt>
      <trkpt lat="50.661049" lon="6.329944">
        <ele>468.000000</ele>
        <time>2008-05-07T23:38:41Z</time>
      </trkpt>
      <trkpt lat="50.661361" lon="6.330284">
        <ele>486.000000</ele>
        <time>2008-05-07T23:38:56Z</time>
      </trkpt>
      <trkpt lat="50.661523" lon="6.330626">
        <ele>478.000000</ele>
        <time>2008-05-07T23:39:07Z</time>
      </trkpt>
      <trkpt lat="50.661656" lon="6.331201">
        <ele>478.000000</ele>
        <time>2008-05-07T23:39:22Z</time>
      </trkpt>
      <trkpt lat="50.661919" lon="6.331744">
        <ele>470.000000</ele>
        <time>2008-05-07T23:39:40Z</time>
      </trkpt>
      <trkpt lat="50.662857" lon="6.332521">
        <ele>475.000000</ele>
        <time>2008-05-07T23:40:22Z</time>
      </trkpt>
      <trkpt lat="50.663170" lon="6.333201">
        <ele>469.000000</ele>
        <time>2008-05-07T23:40:43Z</time>
      </trkpt>
      <trkpt lat="50.663235" lon="6.333512">
        <ele>469.000000</ele>
        <time>2008-05-07T23:40:52Z</time>
      </trkpt>
      <trkpt lat="50.663159" lon="6.333589">
        <ele>469.000000</ele>
        <time>2008-05-07T23:40:55Z</time>
      </trkpt>
      <trkpt lat="50.662905" lon="6.333573">
        <ele>466.000000</ele>
        <time>2008-05-07T23:41:05Z</time>
      </trkpt>
      <trkpt lat="50.662779" lon="6.333635">
        <ele>466.000000</ele>
        <time>2008-05-07T23:41:11Z</time>
      </trkpt>
      <trkpt lat="50.662383" lon="6.334173">
        <ele>471.000000</ele>
        <time>2008-05-07T23:41:32Z</time>
      </trkpt>
      <trkpt lat="50.661893" lon="6.334346">
        <ele>461.000000</ele>
        <time>2008-05-07T23:41:52Z</time>
      </trkpt>
      <trkpt lat="50.661390" lon="6.334750">
        <ele>468.000000</ele>
        <time>2008-05-07T23:42:14Z</time>
      </trkpt>
      <trkpt lat="50.660737" lon="6.334836">
        <ele>458.000000</ele>
        <time>2008-05-07T23:42:41Z</time>
      </trkpt>
      <trkpt lat="50.660638" lon="6.334890">
        <ele>458.000000</ele>
        <time>2008-05-07T23:42:45Z</time>
      </trkpt>
      <trkpt lat="50.660576" lon="6.335063">
        <ele>458.000000</ele>
        <time>2008-05-07T23:42:50Z</time>
      </trkpt>
      <trkpt lat="50.660593" lon="6.335438">
        <ele>457.000000</ele>
        <time>2008-05-07T23:42:59Z</time>
      </trkpt>
      <trkpt lat="50.660813" lon="6.336123">
        <ele>457.000000</ele>
        <time>2008-05-07T23:43:19Z</time>
      </trkpt>
      <trkpt lat="50.661021" lon="6.337305">
        <ele>445.000000</ele>
        <time>2008-05-07T23:43:50Z</time>
      </trkpt>
      <trkpt lat="50.661008" lon="6.337906">
        <ele>445.000000</ele>
        <time>2008-05-07T23:44:05Z</time>
      </trkpt>
      <trkpt lat="50.661199" lon="6.338350">
        <ele>433.000000</ele>
        <time>2008-05-07T23:44:19Z</time>
      </trkpt>
      <trkpt lat="50.661384" lon="6.340037">
        <ele>449.000000</ele>
        <time>2008-05-07T23:45:02Z</time>
      </trkpt>
      <trkpt lat="50.662270" lon="6.342558">
        <ele>449.000000</ele>
        <time>2008-05-07T23:46:15Z</time>
      </trkpt>
      <trkpt lat="50.662276" lon="6.344515">
        <ele>432.000000</ele>
        <time>2008-05-07T23:47:05Z</time>
      </trkpt>
      <trkpt lat="50.662374" lon="6.344777">
        <ele>425.000000</ele>
        <time>2008-05-07T23:47:13Z</time>
      </trkpt>
      <trkpt lat="50.662443" lon="6.345421">
        <ele>418.000000</ele>
        <time>2008-05-07T23:47:29Z</time>
      </trkpt>
      <trkpt lat="50.662475" lon="6.345492">
        <ele>418.000000</ele>
        <time>2008-05-07T23:47:32Z</time>
      </trkpt>
      <trkpt lat="50.662687" lon="6.345492">
        <ele>418.000000</ele>
        <time>2008-05-07T23:47:40Z</time>
      </trkpt>
      <trkpt lat="50.663060" lon="6.345114">
        <ele>429.000000</ele>
        <time>2008-05-07T23:47:58Z</time>
      </trkpt>
      <trkpt lat="50.663636" lon="6.344869">
        <ele>429.000000</ele>
        <time>2008-05-07T23:48:22Z</time>
      </trkpt>
      <trkpt lat="50.663954" lon="6.344936">
        <ele>428.000000</ele>
        <time>2008-05-07T23:48:35Z</time>
      </trkpt>
      <trkpt lat="50.664103" lon="6.345704">
        <ele>411.000000</ele>
        <time>2008-05-07T23:48:55Z</time>
      </trkpt>
      <trkpt lat="50.664724" lon="6.345935">
        <ele>420.000000</ele>
        <time>2008-05-07T23:49:20Z</time>
      </trkpt>
      <trkpt lat="50.665082" lon="6.346394">
        <ele>400.000000</ele>
        <time>2008-05-07T23:49:39Z</time>
      </trkpt>
      <trkpt lat="50.665625" lon="6.346746">
        <ele>420.000000</ele>
        <time>2008-05-07T23:50:02Z</time>
      </trkpt>
      <trkpt lat="50.666229" lon="6.347554">
        <ele>393.000000</ele>
        <time>2008-05-07T23:50:34Z</time>
      </trkpt>
      <trkpt lat="50.667667" lon="6.348941">
        <ele>395.000000</ele>
        <time>2008-05-07T23:51:42Z</time>
      </trkpt>
      <trkpt lat="50.667866" lon="6.349038">
        <ele>395.000000</ele>
        <time>2008-05-07T23:51:50Z</time>
      </trkpt>
      <trkpt lat="50.667919" lon="6.349339">
        <ele>421.000000</ele>
        <time>2008-05-07T23:51:58Z</time>
      </trkpt>
      <trkpt lat="50.668295" lon="6.350081">
        <ele>405.000000</ele>
        <time>2008-05-07T23:52:22Z</time>
      </trkpt>
      <trkpt lat="50.668432" lon="6.350686">
        <ele>389.000000</ele>
        <time>2008-05-07T23:52:38Z</time>
      </trkpt>
      <trkpt lat="50.669221" lon="6.352697">
        <ele>397.000000</ele>
        <time>2008-05-07T23:53:38Z</time>
      </trkpt>
      <trkpt lat="50.669128" lon="6.352678">
        <ele>397.000000</ele>
        <time>2008-05-07T23:53:42Z</time>
      </trkpt>
      <trkpt lat="50.668720" lon="6.352180">
        <ele>355.000000</ele>
        <time>2008-05-07T23:54:03Z</time>
      </trkpt>
      <trkpt lat="50.668482" lon="6.352048">
        <ele>372.000000</ele>
        <time>2008-05-07T23:54:13Z</time>
      </trkpt>
      <trkpt lat="50.668365" lon="6.351830">
        <ele>372.000000</ele>
        <time>2008-05-07T23:54:20Z</time>
      </trkpt>
      <trkpt lat="50.667737" lon="6.351344">
        <ele>337.000000</ele>
        <time>2008-05-07T23:54:48Z</time>
      </trkpt>
      <trkpt lat="50.667407" lon="6.350859">
        <ele>355.000000</ele>
        <time>2008-05-07T23:55:06Z</time>
      </trkpt>
      <trkpt lat="50.667249" lon="6.350722">
        <ele>355.000000</ele>
        <time>2008-05-07T23:55:13Z</time>
      </trkpt>
      <trkpt lat="50.667141" lon="6.350686">
        <ele>355.000000</ele>
        <time>2008-05-07T23:55:18Z</time>
      </trkpt>
      <trkpt lat="50.666848" lon="6.351224">
        <ele>331.000000</ele>
        <time>2008-05-07T23:55:36Z</time>
      </trkpt>
      <trkpt lat="50.666716" lon="6.351341">
        <ele>311.000000</ele>
        <time>2008-05-07T23:55:42Z</time>
      </trkpt>
      <trkpt lat="50.666280" lon="6.350959">
        <ele>331.000000</ele>
        <time>2008-05-07T23:56:02Z</time>
      </trkpt>
      <trkpt lat="50.666076" lon="6.350970">
        <ele>320.000000</ele>
        <time>2008-05-07T23:56:10Z</time>
      </trkpt>
      <trkpt lat="50.666026" lon="6.351331">
        <ele>315.000000</ele>
        <time>2008-05-07T23:56:19Z</time>
      </trkpt>
      <trkpt lat="50.666231" lon="6.351707">
        <ele>315.000000</ele>
        <time>2008-05-07T23:56:32Z</time>
      </trkpt>
      <trkpt lat="50.666356" lon="6.352119">
        <ele>306.000000</ele>
        <time>2008-05-07T23:56:43Z</time>
      </trkpt>
      <trkpt lat="50.666280" lon="6.352311">
        <ele>306.000000</ele>
        <time>2008-05-07T23:56:49Z</time>
      </trkpt>
      <trkpt lat="50.666274" lon="6.352584">
        <ele>306.000000</ele>
        <time>2008-05-07T23:56:56Z</time>
      </trkpt>
      <trkpt lat="50.666007" lon="6.352866">
        <ele>315.000000</ele>
        <time>2008-05-07T23:57:09Z</time>
      </trkpt>
      <trkpt lat="50.666046" lon="6.353227">
        <ele>314.000000</ele>
        <time>2008-05-07T23:57:18Z</time>
      </trkpt>
      <trkpt lat="50.666173" lon="6.353396">
        <ele>314.000000</ele>
        <time>2008-05-07T23:57:25Z</time>
      </trkpt>
      <trkpt lat="50.666262" lon="6.353719">
        <ele>300.000000</ele>
        <time>2008-05-07T23:57:34Z</time>
      </trkpt>
      <trkpt lat="50.666508" lon="6.356239">
        <ele>310.000000</ele>
        <time>2008-05-07T23:58:39Z</time>
      </trkpt>
      <trkpt lat="50.666486" lon="6.357132">
        <ele>319.000000</ele>
        <time>2008-05-07T23:59:01Z</time>
      </trkpt>
      <trkpt lat="50.666367" lon="6.358169">
        <ele>322.000000</ele>
        <time>2008-05-07T23:59:28Z</time>
      </trkpt>
      <trkpt lat="50.666063" lon="6.358362">
        <ele>343.000000</ele>
        <time>2008-05-07T23:59:41Z</time>
      </trkpt>
      <trkpt lat="50.665498" lon="6.358248">
        <ele>343.000000</ele>
        <time>2008-05-08T00:00:04Z</time>
      </trkpt>
      <trkpt lat="50.664900" lon="6.358427">
        <ele>361.000000</ele>
        <time>2008-05-08T00:00:28Z</time>
      </trkpt>
      <trkpt lat="50.664824" lon="6.358607">
        <ele>361.000000</ele>
        <time>2008-05-08T00:00:34Z</time>
      </trkpt>
      <trkpt lat="50.664972" lon="6.358860">
        <ele>370.000000</ele>
        <time>2008-05-08T00:00:42Z</time>
      </trkpt>
      <trkpt lat="50.665406" lon="6.358969">
        <ele>370.000000</ele>
        <time>2008-05-08T00:01:00Z</time>
      </trkpt>
      <trkpt lat="50.665706" lon="6.359304">
        <ele>354.000000</ele>
        <time>2008-05-08T00:01:15Z</time>
      </trkpt>
      <trkpt lat="50.666606" lon="6.359392">
        <ele>339.000000</ele>
        <time>2008-05-08T00:01:51Z</time>
      </trkpt>
      <trkpt lat="50.667155" lon="6.359301">
        <ele>327.000000</ele>
        <time>2008-05-08T00:02:13Z</time>
      </trkpt>
      <trkpt lat="50.667793" lon="6.359556">
        <ele>327.000000</ele>
        <time>2008-05-08T00:02:39Z</time>
      </trkpt>
      <trkpt lat="50.668037" lon="6.359803">
        <ele>323.000000</ele>
        <time>2008-05-08T00:02:51Z</time>
      </trkpt>
      <trkpt lat="50.668616" lon="6.360832">
        <ele>338.000000</ele>
        <time>2008-05-08T00:03:26Z</time>
      </trkpt>
      <trkpt lat="50.669461" lon="6.362761">
        <ele>320.000000</ele>
        <time>2008-05-08T00:04:25Z</time>
      </trkpt>
      <trkpt lat="50.669489" lon="6.363136">
        <ele>330.000000</ele>
        <time>2008-05-08T00:04:35Z</time>
      </trkpt>
      <trkpt lat="50.669342" lon="6.363811">
        <ele>326.000000</ele>
        <time>2008-05-08T00:04:53Z</time>
      </trkpt>
      <trkpt lat="50.669424" lon="6.364861">
        <ele>322.000000</ele>
        <time>2008-05-08T00:05:20Z</time>
      </trkpt>
      <trkpt lat="50.669418" lon="6.365644">
        <ele>317.000000</ele>
        <time>2008-05-08T00:05:40Z</time>
      </trkpt>
      <trkpt lat="50.669325" lon="6.365600">
        <ele>317.000000</ele>
        <time>2008-05-08T00:05:44Z</time>
      </trkpt>
      <trkpt lat="50.669226" lon="6.365315">
        <ele>322.000000</ele>
        <time>2008-05-08T00:05:52Z</time>
      </trkpt>
      <trkpt lat="50.668943" lon="6.365767">
        <ele>317.000000</ele>
        <time>2008-05-08T00:06:08Z</time>
      </trkpt>
      <trkpt lat="50.668908" lon="6.365933">
        <ele>317.000000</ele>
        <time>2008-05-08T00:06:12Z</time>
      </trkpt>
      <trkpt lat="50.669039" lon="6.367975">
        <ele>313.000000</ele>
        <time>2008-05-08T00:07:04Z</time>
      </trkpt>
      <trkpt lat="50.669118" lon="6.368577">
        <ele>313.000000</ele>
        <time>2008-05-08T00:07:20Z</time>
      </trkpt>
      <trkpt lat="50.669379" lon="6.369721">
        <ele>323.000000</ele>
        <time>2008-05-08T00:07:51Z</time>
      </trkpt>
      <trkpt lat="50.669873" lon="6.370948">
        <ele>302.000000</ele>
        <time>2008-05-08T00:08:28Z</time>
      </trkpt>
      <trkpt lat="50.669935" lon="6.371314">
        <ele>312.000000</ele>
        <time>2008-05-08T00:08:37Z</time>
      </trkpt>
      <trkpt lat="50.670681" lon="6.372243">
        <ele>313.000000</ele>
        <time>2008-05-08T00:09:15Z</time>
      </trkpt>
      <trkpt lat="50.670961" lon="6.372537">
        <ele>313.000000</ele>
        <time>2008-05-08T00:09:29Z</time>
      </trkpt>
      <trkpt lat="50.671589" lon="6.372896">
        <ele>307.000000</ele>
        <time>2008-05-08T00:09:56Z</time>
      </trkpt>
      <trkpt lat="50.672990" lon="6.373327">
        <ele>294.000000</ele>
        <time>2008-05-08T00:10:53Z</time>
      </trkpt>
      <trkpt lat="50.673838" lon="6.373686">
        <ele>288.000000</ele>
        <time>2008-05-08T00:11:28Z</time>
      </trkpt>
      <trkpt lat="50.674195" lon="6.374139">
        <ele>293.000000</ele>
        <time>2008-05-08T00:11:46Z</time>
      </trkpt>
      <trkpt lat="50.674302" lon="6.374430">
        <ele>293.000000</ele>
        <time>2008-05-08T00:11:55Z</time>
      </trkpt>
      <trkpt lat="50.674354" lon="6.374845">
        <ele>298.000000</ele>
        <time>2008-05-08T00:12:06Z</time>
      </trkpt>
      <trkpt lat="50.674333" lon="6.375799">
        <ele>289.000000</ele>
        <time>2008-05-08T00:12:30Z</time>
      </trkpt>
      <trkpt lat="50.673562" lon="6.376800">
        <ele>301.000000</ele>
        <time>2008-05-08T00:13:10Z</time>
      </trkpt>
      <trkpt lat="50.673198" lon="6.377736">
        <ele>291.000000</ele>
        <time>2008-05-08T00:13:38Z</time>
      </trkpt>
      <trkpt lat="50.672904" lon="6.378237">
        <ele>314.000000</ele>
        <time>2008-05-08T00:13:55Z</time>
      </trkpt>
      <trkpt lat="50.672751" lon="6.378973">
        <ele>311.000000</ele>
        <time>2008-05-08T00:14:15Z</time>
      </trkpt>
      <trkpt lat="50.672703" lon="6.380571">
        <ele>300.000000</ele>
        <time>2008-05-08T00:14:55Z</time>
      </trkpt>
      <trkpt lat="50.672586" lon="6.381056">
        <ele>300.000000</ele>
        <time>2008-05-08T00:15:08Z</time>
      </trkpt>
      <trkpt lat="50.672569" lon="6.381506">
        <ele>291.000000</ele>
        <time>2008-05-08T00:15:20Z</time>
      </trkpt>
      <trkpt lat="50.672626" lon="6.381970">
        <ele>291.000000</ele>
        <time>2008-05-08T00:15:32Z</time>
      </trkpt>
      <trkpt lat="50.672568" lon="6.382149">
        <ele>287.000000</ele>
        <time>2008-05-08T00:15:37Z</time>
      </trkpt>
      <trkpt lat="50.672480" lon="6.382160">
        <ele>287.000000</ele>
        <time>2008-05-08T00:15:40Z</time>
      </trkpt>
      <trkpt lat="50.671927" lon="6.381542">
        <ele>297.000000</ele>
        <time>2008-05-08T00:16:07Z</time>
      </trkpt>
      <trkpt lat="50.671288" lon="6.381056">
        <ele>319.000000</ele>
        <time>2008-05-08T00:16:36Z</time>
      </trkpt>
      <trkpt lat="50.671030" lon="6.380900">
        <ele>320.000000</ele>
        <time>2008-05-08T00:16:47Z</time>
      </trkpt>
      <trkpt lat="50.670514" lon="6.380771">
        <ele>320.000000</ele>
        <time>2008-05-08T00:17:08Z</time>
      </trkpt>
      <trkpt lat="50.669087" lon="6.380869">
        <ele>326.000000</ele>
        <time>2008-05-08T00:18:05Z</time>
      </trkpt>
      <trkpt lat="50.668462" lon="6.381001">
        <ele>333.000000</ele>
        <time>2008-05-08T00:18:30Z</time>
      </trkpt>
      <trkpt lat="50.667506" lon="6.380982">
        <ele>338.000000</ele>
        <time>2008-05-08T00:19:08Z</time>
      </trkpt>
      <trkpt lat="50.667091" lon="6.381193">
        <ele>338.000000</ele>
        <time>2008-05-08T00:19:26Z</time>
      </trkpt>
      <trkpt lat="50.666066" lon="6.381365">
        <ele>342.000000</ele>
        <time>2008-05-08T00:20:07Z</time>
      </trkpt>
      <trkpt lat="50.665922" lon="6.381300">
        <ele>342.000000</ele>
        <time>2008-05-08T00:20:13Z</time>
      </trkpt>
      <trkpt lat="50.665231" lon="6.381927">
        <ele>349.000000</ele>
        <time>2008-05-08T00:20:45Z</time>
      </trkpt>
      <trkpt lat="50.665132" lon="6.382532">
        <ele>353.000000</ele>
        <time>2008-05-08T00:21:01Z</time>
      </trkpt>
      <trkpt lat="50.665039" lon="6.382647">
        <ele>353.000000</ele>
        <time>2008-05-08T00:21:06Z</time>
      </trkpt>
      <trkpt lat="50.663921" lon="6.382800">
        <ele>364.000000</ele>
        <time>2008-05-08T00:21:51Z</time>
      </trkpt>
      <trkpt lat="50.662657" lon="6.383307">
        <ele>378.000000</ele>
        <time>2008-05-08T00:22:43Z</time>
      </trkpt>
      <trkpt lat="50.661671" lon="6.383361">
        <ele>381.000000</ele>
        <time>2008-05-08T00:23:22Z</time>
      </trkpt>
      <trkpt lat="50.661465" lon="6.383440">
        <ele>381.000000</ele>
        <time>2008-05-08T00:23:31Z</time>
      </trkpt>
      <trkpt lat="50.660882" lon="6.383878">
        <ele>400.000000</ele>
        <time>2008-05-08T00:23:57Z</time>
      </trkpt>
      <trkpt lat="50.660319" lon="6.385273">
        <ele>409.000000</ele>
        <time>2008-05-08T00:24:39Z</time>
      </trkpt>
      <trkpt lat="50.660260" lon="6.385549">
        <ele>417.000000</ele>
        <time>2008-05-08T00:24:46Z</time>
      </trkpt>
      <trkpt lat="50.660408" lon="6.386475">
        <ele>425.000000</ele>
        <time>2008-05-08T00:25:10Z</time>
      </trkpt>
      <trkpt lat="50.660346" lon="6.387133">
        <ele>433.000000</ele>
        <time>2008-05-08T00:25:27Z</time>
      </trkpt>
      <trkpt lat="50.660286" lon="6.387379">
        <ele>433.000000</ele>
        <time>2008-05-08T00:25:34Z</time>
      </trkpt>
      <trkpt lat="50.660061" lon="6.387664">
        <ele>433.000000</ele>
        <time>2008-05-08T00:25:45Z</time>
      </trkpt>
      <trkpt lat="50.660084" lon="6.387851">
        <ele>433.000000</ele>
        <time>2008-05-08T00:25:50Z</time>
      </trkpt>
      <trkpt lat="50.660210" lon="6.387953">
        <ele>441.000000</ele>
        <time>2008-05-08T00:25:56Z</time>
      </trkpt>
      <trkpt lat="50.660502" lon="6.387591">
        <ele>441.000000</ele>
        <time>2008-05-08T00:26:11Z</time>
      </trkpt>
      <trkpt lat="50.660873" lon="6.386740">
        <ele>432.000000</ele>
        <time>2008-05-08T00:26:37Z</time>
      </trkpt>
      <trkpt lat="50.660959" lon="6.386293">
        <ele>432.000000</ele>
        <time>2008-05-08T00:26:49Z</time>
      </trkpt>
      <trkpt lat="50.661257" lon="6.385858">
        <ele>438.000000</ele>
        <time>2008-05-08T00:27:05Z</time>
      </trkpt>
      <trkpt lat="50.661410" lon="6.385946">
        <ele>438.000000</ele>
        <time>2008-05-08T00:27:12Z</time>
      </trkpt>
      <trkpt lat="50.661698" lon="6.385930">
        <ele>438.000000</ele>
        <time>2008-05-08T00:27:23Z</time>
      </trkpt>
      <trkpt lat="50.661750" lon="6.385988">
        <ele>438.000000</ele>
        <time>2008-05-08T00:27:26Z</time>
      </trkpt>
      <trkpt lat="50.661773" lon="6.386344">
        <ele>449.000000</ele>
        <time>2008-05-08T00:27:35Z</time>
      </trkpt>
      <trkpt lat="50.661630" lon="6.387359">
        <ele>453.000000</ele>
        <time>2008-05-08T00:28:01Z</time>
      </trkpt>
      <trkpt lat="50.661795" lon="6.388022">
        <ele>458.000000</ele>
        <time>2008-05-08T00:28:19Z</time>
      </trkpt>
      <trkpt lat="50.661868" lon="6.388540">
        <ele>458.000000</ele>
        <time>2008-05-08T00:28:33Z</time>
      </trkpt>
      <trkpt lat="50.661373" lon="6.390671">
        <ele>466.000000</ele>
        <time>2008-05-08T00:29:30Z</time>
      </trkpt>
      <trkpt lat="50.660513" lon="6.391513">
        <ele>469.000000</ele>
        <time>2008-05-08T00:30:11Z</time>
      </trkpt>
      <trkpt lat="50.660221" lon="6.392923">
        <ele>475.000000</ele>
        <time>2008-05-08T00:30:48Z</time>
      </trkpt>
      <trkpt lat="50.660298" lon="6.393077">
        <ele>475.000000</ele>
        <time>2008-05-08T00:30:53Z</time>
      </trkpt>
      <trkpt lat="50.658251" lon="6.394754">
        <ele>486.000000</ele>
        <time>2008-05-08T00:32:26Z</time>
      </trkpt>
      <trkpt lat="50.655970" lon="6.398056">
        <ele>478.000000</ele>
        <time>2008-05-08T00:34:30Z</time>
      </trkpt>
      <trkpt lat="50.655188" lon="6.397391">
        <ele>474.000000</ele>
        <time>2008-05-08T00:35:05Z</time>
      </trkpt>
      <trkpt lat="50.654500" lon="6.398835">
        <ele>457.000000</ele>
        <time>2008-05-08T00:35:51Z</time>
      </trkpt>
      <trkpt lat="50.654902" lon="6.399595">
        <ele>459.000000</ele>
        <time>2008-05-08T00:36:16Z</time>
      </trkpt>
      <trkpt lat="50.655475" lon="6.400199">
        <ele>467.000000</ele>
        <time>2008-05-08T00:36:44Z</time>
      </trkpt>
      <trkpt lat="50.655598" lon="6.400574">
        <ele>455.000000</ele>
        <time>2008-05-08T00:36:54Z</time>
      </trkpt>
      <trkpt lat="50.655890" lon="6.401037">
        <ele>455.000000</ele>
        <time>2008-05-08T00:37:11Z</time>
      </trkpt>
      <trkpt lat="50.655405" lon="6.401070">
        <ele>444.000000</ele>
        <time>2008-05-08T00:37:30Z</time>
      </trkpt>
      <trkpt lat="50.655651" lon="6.401372">
        <ele>442.000000</ele>
        <time>2008-05-08T00:37:43Z</time>
      </trkpt>
      <trkpt lat="50.655685" lon="6.401539">
        <ele>442.000000</ele>
        <time>2008-05-08T00:37:47Z</time>
      </trkpt>
      <trkpt lat="50.655398" lon="6.401446">
        <ele>428.000000</ele>
        <time>2008-05-08T00:37:59Z</time>
      </trkpt>
      <trkpt lat="50.654963" lon="6.401634">
        <ele>428.000000</ele>
        <time>2008-05-08T00:38:17Z</time>
      </trkpt>
      <trkpt lat="50.654670" lon="6.401638">
        <ele>428.000000</ele>
        <time>2008-05-08T00:38:29Z</time>
      </trkpt>
      <trkpt lat="50.654170" lon="6.401296">
        <ele>410.000000</ele>
        <time>2008-05-08T00:38:51Z</time>
      </trkpt>
      <trkpt lat="50.653751" lon="6.401168">
        <ele>431.000000</ele>
        <time>2008-05-08T00:39:08Z</time>
      </trkpt>
      <trkpt lat="50.653324" lon="6.401240">
        <ele>420.000000</ele>
        <time>2008-05-08T00:39:25Z</time>
      </trkpt>
      <trkpt lat="50.652797" lon="6.401590">
        <ele>398.000000</ele>
        <time>2008-05-08T00:39:48Z</time>
      </trkpt>
      <trkpt lat="50.652291" lon="6.401533">
        <ele>398.000000</ele>
        <time>2008-05-08T00:40:08Z</time>
      </trkpt>
      <trkpt lat="50.652289" lon="6.401824">
        <ele>398.000000</ele>
        <time>2008-05-08T00:40:16Z</time>
      </trkpt>
      <trkpt lat="50.652462" lon="6.402324">
        <ele>387.000000</ele>
        <time>2008-05-08T00:40:30Z</time>
      </trkpt>
      <trkpt lat="50.652484" lon="6.402413">
        <ele>387.000000</ele>
        <time>2008-05-08T00:40:32Z</time>
      </trkpt>
      <trkpt lat="50.652294" lon="6.403236">
        <ele>376.000000</ele>
        <time>2008-05-08T00:40:55Z</time>
      </trkpt>
      <trkpt lat="50.652053" lon="6.403819">
        <ele>378.000000</ele>
        <time>2008-05-08T00:41:12Z</time>
      </trkpt>
      <trkpt lat="50.651860" lon="6.404011">
        <ele>378.000000</ele>
        <time>2008-05-08T00:41:22Z</time>
      </trkpt>
      <trkpt lat="50.651263" lon="6.404202">
        <ele>378.000000</ele>
        <time>2008-05-08T00:41:46Z</time>
      </trkpt>
      <trkpt lat="50.650742" lon="6.404497">
        <ele>377.000000</ele>
        <time>2008-05-08T00:42:08Z</time>
      </trkpt>
      <trkpt lat="50.649500" lon="6.404978">
        <ele>358.000000</ele>
        <time>2008-05-08T00:42:59Z</time>
      </trkpt>
      <trkpt lat="50.648907" lon="6.405647">
        <ele>342.000000</ele>
        <time>2008-05-08T00:43:28Z</time>
      </trkpt>
      <trkpt lat="50.648416" lon="6.406456">
        <ele>327.000000</ele>
        <time>2008-05-08T00:43:57Z</time>
      </trkpt>
      <trkpt lat="50.647715" lon="6.407882">
        <ele>339.000000</ele>
        <time>2008-05-08T00:44:43Z</time>
      </trkpt>
      <trkpt lat="50.647330" lon="6.408898">
        <ele>313.000000</ele>
        <time>2008-05-08T00:45:13Z</time>
      </trkpt>
      <trkpt lat="50.647340" lon="6.409006">
        <ele>313.000000</ele>
        <time>2008-05-08T00:45:15Z</time>
      </trkpt>
      <trkpt lat="50.647556" lon="6.409206">
        <ele>313.000000</ele>
        <time>2008-05-08T00:45:26Z</time>
      </trkpt>
      <trkpt lat="50.647456" lon="6.409891">
        <ele>309.000000</ele>
        <time>2008-05-08T00:45:43Z</time>
      </trkpt>
      <trkpt lat="50.647434" lon="6.411013">
        <ele>315.000000</ele>
        <time>2008-05-08T00:46:12Z</time>
      </trkpt>
      <trkpt lat="50.647381" lon="6.411204">
        <ele>315.000000</ele>
        <time>2008-05-08T00:46:17Z</time>
      </trkpt>
      <trkpt lat="50.647219" lon="6.411382">
        <ele>321.000000</ele>
        <time>2008-05-08T00:46:25Z</time>
      </trkpt>
      <trkpt lat="50.646961" lon="6.412227">
        <ele>303.000000</ele>
        <time>2008-05-08T00:46:49Z</time>
      </trkpt>
      <trkpt lat="50.646481" lon="6.412835">
        <ele>303.000000</ele>
        <time>2008-05-08T00:47:13Z</time>
      </trkpt>
      <trkpt lat="50.646465" lon="6.413006">
        <ele>311.000000</ele>
        <time>2008-05-08T00:47:18Z</time>
      </trkpt>
      <trkpt lat="50.647041" lon="6.413774">
        <ele>300.000000</ele>
        <time>2008-05-08T00:47:48Z</time>
      </trkpt>
      <trkpt lat="50.647648" lon="6.414735">
        <ele>298.000000</ele>
        <time>2008-05-08T00:48:22Z</time>
      </trkpt>
      <trkpt lat="50.647795" lon="6.414744">
        <ele>298.000000</ele>
        <time>2008-05-08T00:48:28Z</time>
      </trkpt>
      <trkpt lat="50.648259" lon="6.415307">
        <ele>318.000000</ele>
        <time>2008-05-08T00:48:52Z</time>
      </trkpt>
      <trkpt lat="50.648474" lon="6.415465">
        <ele>299.000000</ele>
        <time>2008-05-08T00:49:01Z</time>
      </trkpt>
      <trkpt lat="50.649290" lon="6.416451">
        <ele>302.000000</ele>
        <time>2008-05-08T00:49:42Z</time>
      </trkpt>
      <trkpt lat="50.649775" lon="6.417339">
        <ele>312.000000</ele>
        <time>2008-05-08T00:50:12Z</time>
      </trkpt>
      <trkpt lat="50.650120" lon="6.417781">
        <ele>312.000000</ele>
        <time>2008-05-08T00:50:30Z</time>
      </trkpt>
      <trkpt lat="50.650303" lon="6.417874">
        <ele>312.000000</ele>
        <time>2008-05-08T00:50:38Z</time>
      </trkpt>
      <trkpt lat="50.651222" lon="6.417581">
        <ele>328.000000</ele>
        <time>2008-05-08T00:51:15Z</time>
      </trkpt>
      <trkpt lat="50.651474" lon="6.417646">
        <ele>333.000000</ele>
        <time>2008-05-08T00:51:25Z</time>
      </trkpt>
      <trkpt lat="50.651763" lon="6.418030">
        <ele>309.000000</ele>
        <time>2008-05-08T00:51:41Z</time>
      </trkpt>
      <trkpt lat="50.651938" lon="6.418415">
        <ele>309.000000</ele>
        <time>2008-05-08T00:51:53Z</time>
      </trkpt>
      <trkpt lat="50.652085" lon="6.418103">
        <ele>354.000000</ele>
        <time>2008-05-08T00:52:02Z</time>
      </trkpt>
      <trkpt lat="50.652165" lon="6.417717">
        <ele>361.000000</ele>
        <time>2008-05-08T00:52:13Z</time>
      </trkpt>
      <trkpt lat="50.652270" lon="6.417608">
        <ele>361.000000</ele>
        <time>2008-05-08T00:52:18Z</time>
      </trkpt>
      <trkpt lat="50.652459" lon="6.417586">
        <ele>361.000000</ele>
        <time>2008-05-08T00:52:25Z</time>
      </trkpt>
      <trkpt lat="50.652567" lon="6.417950">
        <ele>354.000000</ele>
        <time>2008-05-08T00:52:36Z</time>
      </trkpt>
      <trkpt lat="50.652808" lon="6.417700">
        <ele>361.000000</ele>
        <time>2008-05-08T00:52:47Z</time>
      </trkpt>
      <trkpt lat="50.652441" lon="6.419236">
        <ele>367.000000</ele>
        <time>2008-05-08T00:53:29Z</time>
      </trkpt>
      <trkpt lat="50.653084" lon="6.420637">
        <ele>414.000000</ele>
        <time>2008-05-08T00:54:13Z</time>
      </trkpt>
      <trkpt lat="50.653015" lon="6.421853">
        <ele>418.000000</ele>
        <time>2008-05-08T00:54:44Z</time>
      </trkpt>
      <trkpt lat="50.652859" lon="6.422116">
        <ele>397.000000</ele>
        <time>2008-05-08T00:54:53Z</time>
      </trkpt>
      <trkpt lat="50.652829" lon="6.422312">
        <ele>397.000000</ele>
        <time>2008-05-08T00:54:58Z</time>
      </trkpt>
      <trkpt lat="50.652985" lon="6.422588">
        <ele>420.000000</ele>
        <time>2008-05-08T00:55:07Z</time>
      </trkpt>
      <trkpt lat="50.653045" lon="6.423015">
        <ele>422.000000</ele>
        <time>2008-05-08T00:55:18Z</time>
      </trkpt>
      <trkpt lat="50.653010" lon="6.423350">
        <ele>422.000000</ele>
        <time>2008-05-08T00:55:27Z</time>
      </trkpt>
      <trkpt lat="50.652817" lon="6.423882">
        <ele>412.000000</ele>
        <time>2008-05-08T00:55:43Z</time>
      </trkpt>
      <trkpt lat="50.652484" lon="6.424482">
        <ele>412.000000</ele>
        <time>2008-05-08T00:56:03Z</time>
      </trkpt>
      <trkpt lat="50.652345" lon="6.424842">
        <ele>421.000000</ele>
        <time>2008-05-08T00:56:13Z</time>
      </trkpt>
      <trkpt lat="50.652919" lon="6.426028">
        <ele>417.000000</ele>
        <time>2008-05-08T00:56:51Z</time>
      </trkpt>
      <trkpt lat="50.653165" lon="6.426355">
        <ele>409.000000</ele>
        <time>2008-05-08T00:57:04Z</time>
      </trkpt>
      <trkpt lat="50.653450" lon="6.426897">
        <ele>409.000000</ele>
        <time>2008-05-08T00:57:22Z</time>
      </trkpt>
      <trkpt lat="50.653493" lon="6.427070">
        <ele>409.000000</ele>
        <time>2008-05-08T00:57:27Z</time>
      </trkpt>
      <trkpt lat="50.653406" lon="6.427323">
        <ele>398.000000</ele>
        <time>2008-05-08T00:57:34Z</time>
      </trkpt>
      <trkpt lat="50.653424" lon="6.429007">
        <ele>376.000000</ele>
        <time>2008-05-08T00:58:17Z</time>
      </trkpt>
      <trkpt lat="50.652670" lon="6.427157">
        <ele>371.000000</ele>
        <time>2008-05-08T00:59:13Z</time>
      </trkpt>
      <trkpt lat="50.652432" lon="6.427013">
        <ele>390.000000</ele>
        <time>2008-05-08T00:59:23Z</time>
      </trkpt>
      <trkpt lat="50.651753" lon="6.426941">
        <ele>376.000000</ele>
        <time>2008-05-08T00:59:50Z</time>
      </trkpt>
      <trkpt lat="50.652303" lon="6.427444">
        <ele>371.000000</ele>
        <time>2008-05-08T01:00:16Z</time>
      </trkpt>
      <trkpt lat="50.651625" lon="6.427445">
        <ele>352.000000</ele>
        <time>2008-05-08T01:00:43Z</time>
      </trkpt>
      <trkpt lat="50.650551" lon="6.427667">
        <ele>336.000000</ele>
        <time>2008-05-08T01:01:26Z</time>
      </trkpt>
      <trkpt lat="50.651539" lon="6.428243">
        <ele>328.000000</ele>
        <time>2008-05-08T01:02:08Z</time>
      </trkpt>
      <trkpt lat="50.651564" lon="6.428369">
        <ele>328.000000</ele>
        <time>2008-05-08T01:02:12Z</time>
      </trkpt>
      <trkpt lat="50.651340" lon="6.429012">
        <ele>323.000000</ele>
        <time>2008-05-08T01:02:30Z</time>
      </trkpt>
      <trkpt lat="50.651141" lon="6.429441">
        <ele>306.000000</ele>
        <time>2008-05-08T01:02:44Z</time>
      </trkpt>
      <trkpt lat="50.651007" lon="6.429654">
        <ele>296.000000</ele>
        <time>2008-05-08T01:02:51Z</time>
      </trkpt>
      <trkpt lat="50.650357" lon="6.430247">
        <ele>284.000000</ele>
        <time>2008-05-08T01:03:21Z</time>
      </trkpt>
      <trkpt lat="50.649877" lon="6.430825">
        <ele>294.000000</ele>
        <time>2008-05-08T01:03:46Z</time>
      </trkpt>
      <trkpt lat="50.649789" lon="6.431024">
        <ele>294.000000</ele>
        <time>2008-05-08T01:03:52Z</time>
      </trkpt>
      <trkpt lat="50.649686" lon="6.431763">
        <ele>304.000000</ele>
        <time>2008-05-08T01:04:11Z</time>
      </trkpt>
      <trkpt lat="50.649602" lon="6.431816">
        <ele>304.000000</ele>
        <time>2008-05-08T01:04:15Z</time>
      </trkpt>
      <trkpt lat="50.648981" lon="6.431110">
        <ele>290.000000</ele>
        <time>2008-05-08T01:04:45Z</time>
      </trkpt>
      <trkpt lat="50.648043" lon="6.431180">
        <ele>291.000000</ele>
        <time>2008-05-08T01:05:23Z</time>
      </trkpt>
      <trkpt lat="50.647692" lon="6.431338">
        <ele>280.000000</ele>
        <time>2008-05-08T01:05:37Z</time>
      </trkpt>
      <trkpt lat="50.647462" lon="6.432108">
        <ele>288.000000</ele>
        <time>2008-05-08T01:05:59Z</time>
      </trkpt>
      <trkpt lat="50.647247" lon="6.433369">
        <ele>296.000000</ele>
        <time>2008-05-08T01:06:32Z</time>
      </trkpt>
      <trkpt lat="50.647280" lon="6.434330">
        <ele>293.000000</ele>
        <time>2008-05-08T01:06:57Z</time>
      </trkpt>
      <trkpt lat="50.647368" lon="6.434810">
        <ele>289.000000</ele>
        <time>2008-05-08T01:07:09Z</time>
      </trkpt>
      <trkpt lat="50.647670" lon="6.435782">
        <ele>289.000000</ele>
        <time>2008-05-08T01:07:37Z</time>
      </trkpt>
      <trkpt lat="50.647830" lon="6.436579">
        <ele>289.000000</ele>
        <time>2008-05-08T01:07:58Z</time>
      </trkpt>
      <trkpt lat="50.647855" lon="6.437008">
        <ele>289.000000</ele>
        <time>2008-05-08T01:08:09Z</time>
      </trkpt>
      <trkpt lat="50.647955" lon="6.437536">
        <ele>309.000000</ele>
        <time>2008-05-08T01:08:23Z</time>
      </trkpt>
      <trkpt lat="50.648026" lon="6.437750">
        <ele>309.000000</ele>
        <time>2008-05-08T01:08:29Z</time>
      </trkpt>
      <trkpt lat="50.648223" lon="6.437970">
        <ele>306.000000</ele>
        <time>2008-05-08T01:08:39Z</time>
      </trkpt>
      <trkpt lat="50.648222" lon="6.438091">
        <ele>306.000000</ele>
        <time>2008-05-08T01:08:42Z</time>
      </trkpt>
      <trkpt lat="50.647862" lon="6.438202">
        <ele>311.000000</ele>
        <time>2008-05-08T01:08:56Z</time>
      </trkpt>
      <trkpt lat="50.647556" lon="6.438103">
        <ele>311.000000</ele>
        <time>2008-05-08T01:09:09Z</time>
      </trkpt>
      <trkpt lat="50.647025" lon="6.437296">
        <ele>305.000000</ele>
        <time>2008-05-08T01:09:38Z</time>
      </trkpt>
      <trkpt lat="50.646636" lon="6.436941">
        <ele>282.000000</ele>
        <time>2008-05-08T01:09:56Z</time>
      </trkpt>
      <trkpt lat="50.646180" lon="6.437039">
        <ele>280.000000</ele>
        <time>2008-05-08T01:10:15Z</time>
      </trkpt>
      <trkpt lat="50.645609" lon="6.437555">
        <ele>293.000000</ele>
        <time>2008-05-08T01:10:41Z</time>
      </trkpt>
      <trkpt lat="50.645351" lon="6.438417">
        <ele>280.000000</ele>
        <time>2008-05-08T01:11:05Z</time>
      </trkpt>
      <trkpt lat="50.645280" lon="6.439397">
        <ele>290.000000</ele>
        <time>2008-05-08T01:11:30Z</time>
      </trkpt>
      <trkpt lat="50.645139" lon="6.439822">
        <ele>301.000000</ele>
        <time>2008-05-08T01:11:43Z</time>
      </trkpt>
      <trkpt lat="50.644953" lon="6.440111">
        <ele>301.000000</ele>
        <time>2008-05-08T01:11:53Z</time>
      </trkpt>
      <trkpt lat="50.644257" lon="6.440707">
        <ele>301.000000</ele>
        <time>2008-05-08T01:12:25Z</time>
      </trkpt>
      <trkpt lat="50.644111" lon="6.440745">
        <ele>301.000000</ele>
        <time>2008-05-08T01:12:31Z</time>
      </trkpt>
      <trkpt lat="50.643826" lon="6.441118">
        <ele>301.000000</ele>
        <time>2008-05-08T01:12:46Z</time>
      </trkpt>
      <trkpt lat="50.643678" lon="6.441193">
        <ele>291.000000</ele>
        <time>2008-05-08T01:12:52Z</time>
      </trkpt>
      <trkpt lat="50.642994" lon="6.442005">
        <ele>302.000000</ele>
        <time>2008-05-08T01:13:26Z</time>
      </trkpt>
      <trkpt lat="50.642695" lon="6.442246">
        <ele>299.000000</ele>
        <time>2008-05-08T01:13:39Z</time>
      </trkpt>
      <trkpt lat="50.642520" lon="6.442328">
        <ele>299.000000</ele>
        <time>2008-05-08T01:13:47Z</time>
      </trkpt>
      <trkpt lat="50.642261" lon="6.442142">
        <ele>299.000000</ele>
        <time>2008-05-08T01:13:58Z</time>
      </trkpt>
      <trkpt lat="50.641745" lon="6.442152">
        <ele>291.000000</ele>
        <time>2008-05-08T01:14:19Z</time>
      </trkpt>
      <trkpt lat="50.641350" lon="6.441901">
        <ele>280.000000</ele>
        <time>2008-05-08T01:14:36Z</time>
      </trkpt>
      <trkpt lat="50.640683" lon="6.441713">
        <ele>284.000000</ele>
        <time>2008-05-08T01:15:03Z</time>
      </trkpt>
      <trkpt lat="50.639690" lon="6.441959">
        <ele>285.000000</ele>
        <time>2008-05-08T01:15:43Z</time>
      </trkpt>
      <trkpt lat="50.639644" lon="6.441768">
        <ele>285.000000</ele>
        <time>2008-05-08T01:15:48Z</time>
      </trkpt>
      <trkpt lat="50.639436" lon="6.441434">
        <ele>287.000000</ele>
        <time>2008-05-08T01:16:00Z</time>
      </trkpt>
      <trkpt lat="50.639318" lon="6.441319">
        <ele>287.000000</ele>
        <time>2008-05-08T01:16:06Z</time>
      </trkpt>
      <trkpt lat="50.639027" lon="6.441244">
        <ele>282.000000</ele>
        <time>2008-05-08T01:16:18Z</time>
      </trkpt>
      <trkpt lat="50.635941" lon="6.441963">
        <ele>275.000000</ele>
        <time>2008-05-08T01:18:23Z</time>
      </trkpt>
      <trkpt lat="50.635486" lon="6.442127">
        <ele>264.000000</ele>
        <time>2008-05-08T01:18:41Z</time>
      </trkpt>
      <trkpt lat="50.634610" lon="6.442581">
        <ele>273.000000</ele>
        <time>2008-05-08T01:19:18Z</time>
      </trkpt>
      <trkpt lat="50.634225" lon="6.442947">
        <ele>292.000000</ele>
        <time>2008-05-08T01:19:36Z</time>
      </trkpt>
      <trkpt lat="50.633521" lon="6.444064">
        <ele>291.000000</ele>
        <time>2008-05-08T01:20:16Z</time>
      </trkpt>
      <trkpt lat="50.633185" lon="6.444373">
        <ele>291.000000</ele>
        <time>2008-05-08T01:20:32Z</time>
      </trkpt>
      <trkpt lat="50.632726" lon="6.444537">
        <ele>291.000000</ele>
        <time>2008-05-08T01:20:51Z</time>
      </trkpt>
      <trkpt lat="50.632226" lon="6.444413">
        <ele>291.000000</ele>
        <time>2008-05-08T01:21:11Z</time>
      </trkpt>
      <trkpt lat="50.631553" lon="6.443922">
        <ele>295.000000</ele>
        <time>2008-05-08T01:21:40Z</time>
      </trkpt>
      <trkpt lat="50.631631" lon="6.443603">
        <ele>295.000000</ele>
        <time>2008-05-08T01:21:49Z</time>
      </trkpt>
      <trkpt lat="50.629941" lon="6.441926">
        <ele>297.000000</ele>
        <time>2008-05-08T01:23:09Z</time>
      </trkpt>
      <trkpt lat="50.629814" lon="6.441605">
        <ele>297.000000</ele>
        <time>2008-05-08T01:23:19Z</time>
      </trkpt>
      <trkpt lat="50.629832" lon="6.441180">
        <ele>307.000000</ele>
        <time>2008-05-08T01:23:30Z</time>
      </trkpt>
      <trkpt lat="50.629946" lon="6.440926">
        <ele>307.000000</ele>
        <time>2008-05-08T01:23:37Z</time>
      </trkpt>
      <trkpt lat="50.630198" lon="6.440833">
        <ele>307.000000</ele>
        <time>2008-05-08T01:23:48Z</time>
      </trkpt>
      <trkpt lat="50.631250" lon="6.441200">
        <ele>315.000000</ele>
        <time>2008-05-08T01:24:31Z</time>
      </trkpt>
      <trkpt lat="50.631607" lon="6.441302">
        <ele>293.000000</ele>
        <time>2008-05-08T01:24:45Z</time>
      </trkpt>
      <trkpt lat="50.631765" lon="6.441281">
        <ele>293.000000</ele>
        <time>2008-05-08T01:24:52Z</time>
      </trkpt>
      <trkpt lat="50.631938" lon="6.441114">
        <ele>315.000000</ele>
        <time>2008-05-08T01:25:00Z</time>
      </trkpt>
      <trkpt lat="50.632376" lon="6.440363">
        <ele>318.000000</ele>
        <time>2008-05-08T01:25:26Z</time>
      </trkpt>
      <trkpt lat="50.632720" lon="6.440066">
        <ele>318.000000</ele>
        <time>2008-05-08T01:25:42Z</time>
      </trkpt>
      <trkpt lat="50.633564" lon="6.439535">
        <ele>312.000000</ele>
        <time>2008-05-08T01:26:18Z</time>
      </trkpt>
      <trkpt lat="50.633913" lon="6.438753">
        <ele>299.000000</ele>
        <time>2008-05-08T01:26:42Z</time>
      </trkpt>
      <trkpt lat="50.634503" lon="6.438576">
        <ele>318.000000</ele>
        <time>2008-05-08T01:27:06Z</time>
      </trkpt>
      <trkpt lat="50.634715" lon="6.438407">
        <ele>280.000000</ele>
        <time>2008-05-08T01:27:16Z</time>
      </trkpt>
      <trkpt lat="50.634779" lon="6.437652">
        <ele>280.000000</ele>
        <time>2008-05-08T01:27:35Z</time>
      </trkpt>
      <trkpt lat="50.634703" lon="6.436293">
        <ele>280.000000</ele>
        <time>2008-05-08T01:28:10Z</time>
      </trkpt>
      <trkpt lat="50.635024" lon="6.434966">
        <ele>300.000000</ele>
        <time>2008-05-08T01:28:46Z</time>
      </trkpt>
      <trkpt lat="50.634973" lon="6.434539">
        <ele>299.000000</ele>
        <time>2008-05-08T01:28:57Z</time>
      </trkpt>
      <trkpt lat="50.634825" lon="6.434317">
        <ele>299.000000</ele>
        <time>2008-05-08T01:29:05Z</time>
      </trkpt>
      <trkpt lat="50.634505" lon="6.434304">
        <ele>328.000000</ele>
        <time>2008-05-08T01:29:18Z</time>
      </trkpt>
      <trkpt lat="50.634415" lon="6.434079">
        <ele>328.000000</ele>
        <time>2008-05-08T01:29:25Z</time>
      </trkpt>
      <trkpt lat="50.634569" lon="6.433204">
        <ele>326.000000</ele>
        <time>2008-05-08T01:29:48Z</time>
      </trkpt>
      <trkpt lat="50.634841" lon="6.430335">
        <ele>309.000000</ele>
        <time>2008-05-08T01:31:01Z</time>
      </trkpt>
      <trkpt lat="50.635028" lon="6.429519">
        <ele>318.000000</ele>
        <time>2008-05-08T01:31:23Z</time>
      </trkpt>
      <trkpt lat="50.634958" lon="6.429499">
        <ele>318.000000</ele>
        <time>2008-05-08T01:31:26Z</time>
      </trkpt>
      <trkpt lat="50.634572" lon="6.430520">
        <ele>334.000000</ele>
        <time>2008-05-08T01:31:56Z</time>
      </trkpt>
      <trkpt lat="50.634364" lon="6.431210">
        <ele>334.000000</ele>
        <time>2008-05-08T01:32:16Z</time>
      </trkpt>
      <trkpt lat="50.634267" lon="6.433123">
        <ele>326.000000</ele>
        <time>2008-05-08T01:33:04Z</time>
      </trkpt>
      <trkpt lat="50.634210" lon="6.433490">
        <ele>326.000000</ele>
        <time>2008-05-08T01:33:14Z</time>
      </trkpt>
      <trkpt lat="50.634065" lon="6.433746">
        <ele>326.000000</ele>
        <time>2008-05-08T01:33:23Z</time>
      </trkpt>
      <trkpt lat="50.633852" lon="6.433861">
        <ele>328.000000</ele>
        <time>2008-05-08T01:33:32Z</time>
      </trkpt>
      <trkpt lat="50.632957" lon="6.433994">
        <ele>341.000000</ele>
        <time>2008-05-08T01:34:08Z</time>
      </trkpt>
      <trkpt lat="50.632279" lon="6.433832">
        <ele>348.000000</ele>
        <time>2008-05-08T01:34:35Z</time>
      </trkpt>
      <trkpt lat="50.632084" lon="6.433733">
        <ele>347.000000</ele>
        <time>2008-05-08T01:34:43Z</time>
      </trkpt>
      <trkpt lat="50.631780" lon="6.433398">
        <ele>347.000000</ele>
        <time>2008-05-08T01:34:58Z</time>
      </trkpt>
      <trkpt lat="50.631224" lon="6.432132">
        <ele>356.000000</ele>
        <time>2008-05-08T01:35:37Z</time>
      </trkpt>
      <trkpt lat="50.631042" lon="6.431566">
        <ele>355.000000</ele>
        <time>2008-05-08T01:35:53Z</time>
      </trkpt>
      <trkpt lat="50.630881" lon="6.430733">
        <ele>359.000000</ele>
        <time>2008-05-08T01:36:16Z</time>
      </trkpt>
      <trkpt lat="50.630633" lon="6.430123">
        <ele>363.000000</ele>
        <time>2008-05-08T01:36:34Z</time>
      </trkpt>
      <trkpt lat="50.630011" lon="6.429381">
        <ele>371.000000</ele>
        <time>2008-05-08T01:37:05Z</time>
      </trkpt>
      <trkpt lat="50.629592" lon="6.429059">
        <ele>371.000000</ele>
        <time>2008-05-08T01:37:24Z</time>
      </trkpt>
      <trkpt lat="50.628128" lon="6.428878">
        <ele>387.000000</ele>
        <time>2008-05-08T01:38:23Z</time>
      </trkpt>
      <trkpt lat="50.627349" lon="6.428339">
        <ele>394.000000</ele>
        <time>2008-05-08T01:38:57Z</time>
      </trkpt>
      <trkpt lat="50.627039" lon="6.427926">
        <ele>403.000000</ele>
        <time>2008-05-08T01:39:13Z</time>
      </trkpt>
      <trkpt lat="50.626664" lon="6.427674">
        <ele>409.000000</ele>
        <time>2008-05-08T01:39:29Z</time>
      </trkpt>
      <trkpt lat="50.626556" lon="6.427492">
        <ele>409.000000</ele>
        <time>2008-05-08T01:39:36Z</time>
      </trkpt>
      <trkpt lat="50.626249" lon="6.427405">
        <ele>417.000000</ele>
        <time>2008-05-08T01:39:48Z</time>
      </trkpt>
      <trkpt lat="50.625935" lon="6.427477">
        <ele>417.000000</ele>
        <time>2008-05-08T01:40:01Z</time>
      </trkpt>
      <trkpt lat="50.625168" lon="6.427301">
        <ele>427.000000</ele>
        <time>2008-05-08T01:40:32Z</time>
      </trkpt>
      <trkpt lat="50.624783" lon="6.427140">
        <ele>427.000000</ele>
        <time>2008-05-08T01:40:48Z</time>
      </trkpt>
      <trkpt lat="50.624542" lon="6.426862">
        <ele>439.000000</ele>
        <time>2008-05-08T01:41:00Z</time>
      </trkpt>
      <trkpt lat="50.624273" lon="6.426720">
        <ele>439.000000</ele>
        <time>2008-05-08T01:41:11Z</time>
      </trkpt>
      <trkpt lat="50.623762" lon="6.426639">
        <ele>439.000000</ele>
        <time>2008-05-08T01:41:32Z</time>
      </trkpt>
      <trkpt lat="50.623159" lon="6.426211">
        <ele>449.000000</ele>
        <time>2008-05-08T01:41:58Z</time>
      </trkpt>
      <trkpt lat="50.623283" lon="6.425871">
        <ele>449.000000</ele>
        <time>2008-05-08T01:42:08Z</time>
      </trkpt>
      <trkpt lat="50.623308" lon="6.424925">
        <ele>452.000000</ele>
        <time>2008-05-08T01:42:32Z</time>
      </trkpt>
      <trkpt lat="50.623469" lon="6.423995">
        <ele>455.000000</ele>
        <time>2008-05-08T01:42:56Z</time>
      </trkpt>
      <trkpt lat="50.623378" lon="6.423716">
        <ele>457.000000</ele>
        <time>2008-05-08T01:43:04Z</time>
      </trkpt>
      <trkpt lat="50.622824" lon="6.423231">
        <ele>460.000000</ele>
        <time>2008-05-08T01:43:30Z</time>
      </trkpt>
      <trkpt lat="50.622310" lon="6.423023">
        <ele>460.000000</ele>
        <time>2008-05-08T01:43:51Z</time>
      </trkpt>
      <trkpt lat="50.621935" lon="6.422419">
        <ele>479.000000</ele>
        <time>2008-05-08T01:44:13Z</time>
      </trkpt>
      <trkpt lat="50.621732" lon="6.421964">
        <ele>478.000000</ele>
        <time>2008-05-08T01:44:27Z</time>
      </trkpt>
      <trkpt lat="50.621523" lon="6.421055">
        <ele>482.000000</ele>
        <time>2008-05-08T01:44:51Z</time>
      </trkpt>
      <trkpt lat="50.621552" lon="6.420805">
        <ele>482.000000</ele>
        <time>2008-05-08T01:44:58Z</time>
      </trkpt>
      <trkpt lat="50.621734" lon="6.420492">
        <ele>482.000000</ele>
        <time>2008-05-08T01:45:08Z</time>
      </trkpt>
      <trkpt lat="50.621772" lon="6.418697">
        <ele>492.000000</ele>
        <time>2008-05-08T01:45:54Z</time>
      </trkpt>
      <trkpt lat="50.622044" lon="6.416023">
        <ele>501.000000</ele>
        <time>2008-05-08T01:47:03Z</time>
      </trkpt>
      <trkpt lat="50.622008" lon="6.415268">
        <ele>502.000000</ele>
        <time>2008-05-08T01:47:22Z</time>
      </trkpt>
      <trkpt lat="50.621955" lon="6.414992">
        <ele>502.000000</ele>
        <time>2008-05-08T01:47:29Z</time>
      </trkpt>
      <trkpt lat="50.621792" lon="6.414577">
        <ele>486.000000</ele>
        <time>2008-05-08T01:47:42Z</time>
      </trkpt>
      <trkpt lat="50.621332" lon="6.413990">
        <ele>486.000000</ele>
        <time>2008-05-08T01:48:05Z</time>
      </trkpt>
      <trkpt lat="50.620726" lon="6.413073">
        <ele>501.000000</ele>
        <time>2008-05-08T01:48:39Z</time>
      </trkpt>
      <trkpt lat="50.620190" lon="6.412036">
        <ele>504.000000</ele>
        <time>2008-05-08T01:49:13Z</time>
      </trkpt>
      <trkpt lat="50.619390" lon="6.410027">
        <ele>501.000000</ele>
        <time>2008-05-08T01:50:13Z</time>
      </trkpt>
      <trkpt lat="50.619075" lon="6.409705">
        <ele>501.000000</ele>
        <time>2008-05-08T01:50:28Z</time>
      </trkpt>
      <trkpt lat="50.618768" lon="6.411490">
        <ele>507.000000</ele>
        <time>2008-05-08T01:51:15Z</time>
      </trkpt>
      <trkpt lat="50.618822" lon="6.413916">
        <ele>510.000000</ele>
        <time>2008-05-08T01:52:17Z</time>
      </trkpt>
      <trkpt lat="50.618794" lon="6.414584">
        <ele>510.000000</ele>
        <time>2008-05-08T01:52:34Z</time>
      </trkpt>
      <trkpt lat="50.618375" lon="6.417399">
        <ele>509.000000</ele>
        <time>2008-05-08T01:53:47Z</time>
      </trkpt>
      <trkpt lat="50.618351" lon="6.417873">
        <ele>509.000000</ele>
        <time>2008-05-08T01:53:59Z</time>
      </trkpt>
      <trkpt lat="50.618283" lon="6.417943">
        <ele>512.000000</ele>
        <time>2008-05-08T01:54:03Z</time>
      </trkpt>
      <trkpt lat="50.618054" lon="6.419428">
        <ele>515.000000</ele>
        <time>2008-05-08T01:54:42Z</time>
      </trkpt>
      <trkpt lat="50.617214" lon="6.422920">
        <ele>515.000000</ele>
        <time>2008-05-08T01:56:16Z</time>
      </trkpt>
      <trkpt lat="50.616843" lon="6.425672">
        <ele>508.000000</ele>
        <time>2008-05-08T01:57:28Z</time>
      </trkpt>
      <trkpt lat="50.616898" lon="6.426238">
        <ele>508.000000</ele>
        <time>2008-05-08T01:57:42Z</time>
      </trkpt>
      <trkpt lat="50.616873" lon="6.426833">
        <ele>503.000000</ele>
        <time>2008-05-08T01:57:58Z</time>
      </trkpt>
      <trkpt lat="50.613103" lon="6.425731">
        <ele>475.000000</ele>
        <time>2008-05-08T02:00:31Z</time>
      </trkpt>
      <trkpt lat="50.612482" lon="6.425722">
        <ele>468.000000</ele>
        <time>2008-05-08T02:00:56Z</time>
      </trkpt>
      <trkpt lat="50.611181" lon="6.425400">
        <ele>463.000000</ele>
        <time>2008-05-08T02:01:49Z</time>
      </trkpt>
      <trkpt lat="50.610865" lon="6.425247">
        <ele>463.000000</ele>
        <time>2008-05-08T02:02:02Z</time>
      </trkpt>
      <trkpt lat="50.610308" lon="6.425138">
        <ele>437.000000</ele>
        <time>2008-05-08T02:02:24Z</time>
      </trkpt>
      <trkpt lat="50.609774" lon="6.424889">
        <ele>437.000000</ele>
        <time>2008-05-08T02:02:47Z</time>
      </trkpt>
      <trkpt lat="50.608589" lon="6.424069">
        <ele>395.000000</ele>
        <time>2008-05-08T02:03:38Z</time>
      </trkpt>
      <trkpt lat="50.607799" lon="6.423749">
        <ele>384.000000</ele>
        <time>2008-05-08T02:04:11Z</time>
      </trkpt>
      <trkpt lat="50.607253" lon="6.423113">
        <ele>384.000000</ele>
        <time>2008-05-08T02:04:38Z</time>
      </trkpt>
      <trkpt lat="50.605232" lon="6.421086">
        <ele>323.000000</ele>
        <time>2008-05-08T02:06:14Z</time>
      </trkpt>
      <trkpt lat="50.604480" lon="6.420546">
        <ele>316.000000</ele>
        <time>2008-05-08T02:06:47Z</time>
      </trkpt>
    </trkseg>
  </trk>

</gpx>
